Hooper, Nebraska
Current Conditions -  °F | °C
As of 5:35 PM on Saturday 25 Oct 2014 (Local Time) from KFET Reporting Station
Clear Clear  
Wind Chill: 71°   Ceiling: Unl
Heat Index: 71°   Visibility: 10mi
Dew Point: 38°   Wind: 7mph
Humidity: 30%   Direction: 80°E
Pressure: 30.05"   Gusts: NA
Location:  41.61°N, 96.55°W
Report Text: KFET 252235Z AUTO 08006KT 10SM CLR 22/03 A3005 RMK AO2 T02190034
Loading
Personal Weather Stations






























Interactive Weather Map
Tropical Storm Tracking
New forecast layout! Learn more

10-Day Weather Forecast

Advertisements
Track Severe Weather on mobile